Time;durP1;ratioP1;P1;durP2;ratioP2;P2;SDS_P1;SDS_P2;PMS_P1;PMS_P2;Temp;Humidity;BMP_temperature;BMP_pressure;BME280_temperature;BME280_humidity;BME280_pressure;Samples;Min_cycle;Max_cycle;Signal;HPM_P1;HPM_P2
2023/07/30 00:01:28;;;;;;;6.35;2.80;;;;;;;17.33;67.00;100847.19;5022001;28;20643;-81
2023/07/30 00:03:54;;;;;;;4.47;2.30;;;;;;;17.23;67.30;100849.63;5029460;28;20023;-81
2023/07/30 00:06:19;;;;;;;9.57;2.63;;;;;;;17.19;68.16;100845.44;5025542;28;20022;-81
2023/07/30 00:08:44;;;;;;;6.18;2.50;;;;;;;17.19;67.51;100850.78;5027352;28;20083;-81
2023/07/30 00:11:09;;;;;;;6.07;3.00;;;;;;;17.17;67.48;100847.38;5035848;28;20029;-81
2023/07/30 00:13:35;;;;;;;5.72;2.42;;;;;;;17.13;67.78;100851.22;5021678;28;20080;-81
2023/07/30 00:16:00;;;;;;;5.63;2.30;;;;;;;17.19;67.89;100853.47;5031347;28;20477;-81
2023/07/30 00:18:25;;;;;;;5.43;2.40;;;;;;;17.09;67.74;100841.69;5034808;28;20032;-81
2023/07/30 00:20:50;;;;;;;7.30;2.40;;;;;;;17.18;67.63;100846.41;5035533;28;20030;-81
2023/07/30 00:23:16;;;;;;;6.88;2.75;;;;;;;17.16;68.05;100842.13;5018916;28;20033;-80
2023/07/30 00:25:41;;;;;;;8.35;2.80;;;;;;;17.13;68.28;100840.53;5023351;28;20338;-81
2023/07/30 00:28:06;;;;;;;7.55;2.80;;;;;;;17.13;68.45;100851.22;5031387;28;20484;-81
2023/07/30 00:30:31;;;;;;;4.47;2.45;;;;;;;17.14;68.23;100847.56;5024292;28;20021;-81
2023/07/30 00:32:57;;;;;;;6.20;2.40;;;;;;;17.13;68.39;100856.56;5014588;28;20030;-81
2023/07/30 00:35:22;;;;;;;10.95;2.90;;;;;;;17.06;68.21;100845.41;5026666;28;20036;-81
2023/07/30 00:37:47;;;;;;;6.35;2.67;;;;;;;17.06;68.79;100852.56;5024356;28;20392;-81
2023/07/30 00:40:13;;;;;;;8.32;2.60;;;;;;;16.99;69.86;100848.63;5026041;28;20029;-81
2023/07/30 00:42:38;;;;;;;6.03;2.97;;;;;;;16.96;69.40;100851.47;5029821;28;20044;-81
2023/07/30 00:45:10;;;;;;;9.70;2.78;;;;;;;16.96;69.01;100854.16;5066125;28;20412;-81
2023/07/30 00:47:37;;;;;;;6.55;2.83;;;;;;;16.88;69.24;100859.13;5060428;28;20506;-81
2023/07/30 00:50:03;;;;;;;5.03;2.45;;;;;;;16.86;69.45;100853.91;5062234;28;20096;-81
2023/07/30 00:52:29;;;;;;;8.52;2.80;;;;;;;16.78;69.54;100854.41;5071337;28;20100;-81
2023/07/30 00:54:57;;;;;;;9.02;3.20;;;;;;;16.75;70.25;100859.13;5067629;28;20025;-81
2023/07/30 00:57:23;;;;;;;7.97;2.42;;;;;;;16.65;70.51;100863.31;5056265;28;20028;-80
2023/07/30 00:59:50;;;;;;;6.03;2.83;;;;;;;16.61;70.77;100856.47;5058704;28;20278;-81
2023/07/30 01:02:16;;;;;;;8.52;2.50;;;;;;;16.71;69.46;100865.56;5072137;28;20071;-80
2023/07/30 01:04:42;;;;;;;4.13;2.53;;;;;;;16.74;69.54;100866.28;5064580;28;20411;-81
2023/07/30 01:07:07;;;;;;;7.45;2.92;;;;;;;16.79;69.76;100871.31;5058078;28;20068;-81
2023/07/30 01:09:33;;;;;;;11.27;2.90;;;;;;;16.88;69.27;100875.16;5054363;28;20075;-80
2023/07/30 01:12:00;;;;;;;6.57;2.72;;;;;;;16.78;69.61;100881.09;5057723;28;20024;-80
2023/07/30 01:14:26;;;;;;;5.88;2.85;;;;;;;16.77;69.98;100879.41;5047339;28;20538;-80
2023/07/30 01:16:52;;;;;;;8.65;3.03;;;;;;;16.77;69.82;100878.53;5049575;28;20025;-80
2023/07/30 01:19:17;;;;;;;5.78;2.60;;;;;;;16.67;70.13;100877.41;5045620;28;20468;-80
2023/07/30 01:21:43;;;;;;;4.95;2.60;;;;;;;16.67;70.34;100886.25;5049389;28;20035;-80
2023/07/30 01:24:08;;;;;;;7.43;2.83;;;;;;;16.68;70.04;100887.97;5054562;28;20111;-80
2023/07/30 01:27:00;;;;;;;10.85;3.50;;;;;;;16.88;69.23;100889.41;5057788;28;20041;-81
2023/07/30 01:29:42;;;;;;;8.98;3.00;;;;;;;16.95;69.50;100884.50;5048185;28;20043;-80
2023/07/30 01:32:11;;;;;;;7.87;3.40;;;;;;;16.92;69.38;100888.22;5054739;28;20502;-80
2023/07/30 01:34:39;;;;;;;7.60;3.10;;;;;;;16.91;70.18;100893.66;5047965;28;20028;-80
2023/07/30 01:37:11;;;;;;;10.68;3.10;;;;;;;16.92;69.97;100893.56;5050619;28;20396;-80
2023/07/30 01:39:39;;;;;;;7.32;3.13;;;;;;;16.61;71.41;100892.00;5049587;28;20030;-80
2023/07/30 01:42:04;;;;;;;11.10;2.95;;;;;;;16.50;71.57;100897.16;5045771;28;20021;-81
2023/07/30 01:44:29;;;;;;;9.75;2.65;;;;;;;16.61;71.52;100904.50;5051367;28;20048;-80
2023/07/30 01:46:55;;;;;;;8.30;3.05;;;;;;;16.48;71.71;100899.94;5046429;28;20031;-81
2023/07/30 01:49:20;;;;;;;8.93;2.90;;;;;;;16.32;72.48;100897.41;5058652;28;20024;-81
2023/07/30 01:51:45;;;;;;;10.65;2.95;;;;;;;16.32;73.00;100900.06;5049188;28;20052;-80
2023/07/30 01:54:11;;;;;;;7.57;2.97;;;;;;;16.33;72.66;100908.94;5048206;28;20029;-80
2023/07/30 01:56:36;;;;;;;6.80;2.92;;;;;;;16.27;73.09;100904.84;5046881;28;20115;-81
2023/07/30 01:59:01;;;;;;;7.47;3.03;;;;;;;16.50;72.59;100905.16;5043908;28;20534;-81
2023/07/30 02:01:27;;;;;;;10.95;3.03;;;;;;;16.29;73.33;100910.06;5035268;28;20078;-81
2023/07/30 02:03:52;;;;;;;7.63;3.00;;;;;;;16.31;73.02;100914.34;5040781;28;20116;-81
2023/07/30 02:06:17;;;;;;;6.28;2.70;;;;;;;16.31;72.82;100911.66;5038890;28;20526;-80
2023/07/30 02:08:42;;;;;;;10.98;2.90;;;;;;;16.32;73.08;100915.22;5051596;28;21430;-80
2023/07/30 02:11:08;;;;;;;9.23;3.05;;;;;;;16.27;73.69;100915.50;5040705;28;20029;-80
2023/07/30 02:13:33;;;;;;;12.07;3.40;;;;;;;16.16;73.86;100907.31;5040585;28;20029;-80
2023/07/30 02:15:58;;;;;;;7.50;2.85;;;;;;;16.18;73.69;100910.75;5037998;28;20651;-80
2023/07/30 02:18:23;;;;;;;9.40;3.25;;;;;;;16.17;74.24;100908.16;5040496;28;20083;-80
2023/07/30 02:20:49;;;;;;;8.27;3.03;;;;;;;16.22;73.43;100911.41;5029459;28;20059;-80
2023/07/30 02:23:18;;;;;;;9.82;2.97;;;;;;;16.25;73.62;100904.06;5041484;28;20017;-80
2023/07/30 02:25:43;;;;;;;10.32;3.00;;;;;;;16.23;73.81;100902.47;5039622;28;20472;-81
2023/07/30 02:28:09;;;;;;;8.95;3.15;;;;;;;16.28;73.98;100900.34;5044177;28;20089;-80
2023/07/30 02:30:35;;;;;;;11.80;3.20;;;;;;;16.32;73.66;100902.75;5031686;28;20036;-80
2023/07/30 02:33:00;;;;;;;8.80;2.95;;;;;;;16.38;73.71;100895.28;5053928;28;20028;-80
2023/07/30 02:35:25;;;;;;;9.18;3.20;;;;;;;16.44;73.84;100887.75;5047278;28;20037;-81
2023/07/30 02:37:51;;;;;;;8.68;3.05;;;;;;;16.37;73.85;100898.88;5038303;28;20052;-81
2023/07/30 02:40:16;;;;;;;8.35;3.60;;;;;;;16.43;73.63;100893.19;5039124;28;20029;-80
2023/07/30 02:42:41;;;;;;;11.07;4.03;;;;;;;16.46;73.54;100892.97;5042928;28;20037;-81
2023/07/30 02:45:07;;;;;;;11.73;3.55;;;;;;;16.52;73.84;100892.59;5032661;28;20781;-80
2023/07/30 02:47:32;;;;;;;11.85;3.50;;;;;;;16.50;74.30;100887.34;5046743;28;20093;-80
2023/07/30 02:49:57;;;;;;;9.20;3.95;;;;;;;16.52;73.91;100884.59;5037813;28;20032;-80
2023/07/30 02:52:22;;;;;;;12.70;4.18;;;;;;;16.59;74.47;100885.91;5041226;28;20492;-81
2023/07/30 02:54:48;;;;;;;10.80;4.03;;;;;;;16.67;73.86;100898.75;5043488;28;20030;-80
2023/07/30 02:57:13;;;;;;;7.53;3.75;;;;;;;16.67;73.69;100886.25;5043991;28;20029;-81
2023/07/30 02:59:40;;;;;;;11.57;4.97;;;;;;;16.67;73.92;100896.94;5037586;28;20377;-81
2023/07/30 03:02:06;;;;;;;13.20;4.13;;;;;;;16.67;74.30;100890.75;5040605;28;20492;-81
2023/07/30 03:04:31;;;;;;;9.45;3.83;;;;;;;16.67;74.35;100898.75;5041064;28;20083;-81
2023/07/30 03:06:57;;;;;;;10.63;3.90;;;;;;;16.64;74.35;100890.94;5038062;28;20749;-80
2023/07/30 03:09:22;;;;;;;11.80;3.95;;;;;;;16.70;74.15;100894.09;5041517;28;20033;-81
2023/07/30 03:11:48;;;;;;;12.18;4.22;;;;;;;16.69;74.16;100899.50;5039282;28;20507;-80
2023/07/30 03:14:14;;;;;;;9.63;4.10;;;;;;;16.71;74.30;100895.78;5041986;28;20422;-81
2023/07/30 03:16:39;;;;;;;10.30;4.32;;;;;;;16.63;74.56;100892.75;5041227;28;20663;-81
2023/07/30 03:19:04;;;;;;;10.00;4.15;;;;;;;16.67;74.25;100901.44;5039663;28;20029;-81
2023/07/30 03:21:30;;;;;;;11.05;4.20;;;;;;;16.65;74.67;100904.22;5042237;28;20016;-80
2023/07/30 03:23:55;;;;;;;13.50;4.43;;;;;;;16.59;74.85;100900.09;5049265;28;20033;-80
2023/07/30 03:26:20;;;;;;;12.85;4.65;;;;;;;16.56;75.22;100907.47;5045847;28;20025;-81
2023/07/30 03:28:46;;;;;;;10.48;4.15;;;;;;;16.56;75.63;100886.13;5036471;28;20262;-80
2023/07/30 03:31:11;;;;;;;17.45;4.63;;;;;;;16.61;75.22;100904.50;5031880;28;20048;-80
2023/07/30 03:33:39;;;;;;;14.73;4.38;;;;;;;16.56;75.48;100902.13;5045535;28;20480;-80
2023/07/30 03:36:04;;;;;;;14.35;4.63;;;;;;;16.56;75.40;100904.81;5041983;28;20035;-80
2023/07/30 03:38:29;;;;;;;10.07;3.72;;;;;;;16.54;75.83;100898.69;5034296;28;20571;-81
2023/07/30 03:40:55;;;;;;;11.18;4.53;;;;;;;16.49;75.49;100906.13;5039475;28;20029;-80
2023/07/30 03:43:20;;;;;;;12.98;4.20;;;;;;;16.63;75.80;100907.91;5037081;28;20049;-80
2023/07/30 03:45:45;;;;;;;12.43;4.40;;;;;;;16.72;75.54;100910.03;5033000;28;20025;-80
2023/07/30 03:48:10;;;;;;;12.70;4.53;;;;;;;16.66;75.41;100911.25;5040260;28;20032;-80
2023/07/30 03:50:36;;;;;;;13.80;4.40;;;;;;;16.62;75.64;100908.88;5038372;28;20439;-81
2023/07/30 03:53:01;;;;;;;14.52;4.05;;;;;;;16.69;75.54;100918.19;5035803;28;20028;-80
2023/07/30 03:55:26;;;;;;;12.55;4.57;;;;;;;16.78;75.33;100921.16;5045269;28;20029;-81
2023/07/30 03:57:52;;;;;;;13.23;4.20;;;;;;;16.78;75.54;100920.31;5034261;28;20040;-80
2023/07/30 04:00:17;;;;;;;7.82;3.65;;;;;;;16.70;75.35;100923.47;5033716;28;20385;-81
2023/07/30 04:02:42;;;;;;;12.93;4.00;;;;;;;16.72;75.66;100932.25;5043555;28;20090;-81
2023/07/30 04:05:08;;;;;;;12.63;4.00;;;;;;;16.70;76.16;100920.78;5046259;28;20041;-81
2023/07/30 04:07:33;;;;;;;16.95;4.88;;;;;;;16.71;75.57;100922.50;5032300;28;20060;-81
2023/07/30 04:09:58;;;;;;;12.23;3.63;;;;;;;16.71;75.77;100925.16;5040955;28;20514;-80
2023/07/30 04:12:23;;;;;;;10.90;4.43;;;;;;;16.75;75.75;100929.38;5052027;28;20029;-80
2023/07/30 04:14:49;;;;;;;19.13;4.70;;;;;;;16.83;75.80;100926.19;5034593;28;20032;-80
2023/07/30 04:17:14;;;;;;;11.43;4.68;;;;;;;16.86;75.37;100922.47;5034696;28;20035;-81
2023/07/30 04:19:39;;;;;;;11.32;4.75;;;;;;;16.81;75.21;100926.31;5038332;28;20500;-81
2023/07/30 04:22:04;;;;;;;14.95;4.93;;;;;;;16.69;75.90;100928.88;5034237;28;20112;-81
2023/07/30 04:24:30;;;;;;;16.58;4.90;;;;;;;16.70;76.04;100927.94;5036120;28;20048;-81
2023/07/30 04:26:55;;;;;;;13.35;4.70;;;;;;;16.61;76.34;100915.19;5040080;28;20028;-80
2023/07/30 04:29:20;;;;;;;10.48;4.68;;;;;;;16.79;76.20;100932.72;5033605;28;20392;-81
2023/07/30 04:31:46;;;;;;;12.85;4.53;;;;;;;16.82;76.11;100930.69;5033150;28;20175;-81
2023/07/30 04:34:11;;;;;;;15.98;4.95;;;;;;;16.86;75.43;100933.16;5039816;28;20490;-81
2023/07/30 04:36:37;;;;;;;18.80;5.28;;;;;;;16.88;75.64;100936.56;5042490;28;20075;-80
2023/07/30 04:39:02;;;;;;;16.55;5.22;;;;;;;16.83;75.77;100927.09;5035298;28;20027;-80
2023/07/30 04:41:27;;;;;;;14.68;5.18;;;;;;;16.86;75.68;100938.50;5032110;28;20240;-80
2023/07/30 04:43:53;;;;;;;14.38;6.30;;;;;;;16.74;76.31;100919.66;5037143;28;20080;-80
2023/07/30 04:46:18;;;;;;;12.98;5.72;;;;;;;16.81;76.34;100926.31;5033287;28;20447;-81
2023/07/30 04:48:43;;;;;;;14.23;5.60;;;;;;;16.86;76.23;100923.34;5040537;28;20108;-80
2023/07/30 04:51:08;;;;;;;13.70;5.32;;;;;;;17.06;75.30;100922.03;5037142;28;20068;-80
2023/07/30 04:53:34;;;;;;;16.40;5.78;;;;;;;17.05;75.77;100925.66;5045317;28;20039;-80
2023/07/30 04:55:59;;;;;;;18.63;6.13;;;;;;;17.06;75.57;100927.38;5033201;28;20045;-81
2023/07/30 04:58:24;;;;;;;19.27;5.97;;;;;;;17.02;75.63;100926.75;5038588;28;20020;-80
2023/07/30 05:00:50;;;;;;;15.02;4.85;;;;;;;17.05;75.21;100926.50;5044285;28;20018;-80
2023/07/30 05:03:15;;;;;;;14.45;5.32;;;;;;;17.11;75.36;100937.75;5039261;28;20108;-81
2023/07/30 05:05:41;;;;;;;14.30;5.80;;;;;;;17.13;75.38;100938.53;5041234;28;20291;-81
2023/07/30 05:08:06;;;;;;;15.35;5.65;;;;;;;17.12;75.91;100942.16;5041994;28;20032;-81
2023/07/30 05:10:32;;;;;;;15.55;6.68;;;;;;;17.15;75.49;100944.59;5041073;28;20535;-81
2023/07/30 05:12:57;;;;;;;21.27;6.38;;;;;;;17.24;75.11;100944.84;5035464;28;20102;-81
2023/07/30 05:15:22;;;;;;;18.15;6.13;;;;;;;17.27;74.84;100947.34;5048994;28;20033;-81
2023/07/30 05:17:48;;;;;;;15.82;5.85;;;;;;;17.30;75.14;100949.81;5040575;28;20762;-81
2023/07/30 05:20:13;;;;;;;17.83;5.80;;;;;;;17.26;75.08;100956.31;5031382;28;20035;-81
2023/07/30 05:22:38;;;;;;;17.98;5.80;;;;;;;17.27;75.26;100952.69;5036617;28;20037;-81
2023/07/30 05:25:04;;;;;;;14.55;6.07;;;;;;;17.30;75.31;100957.84;5030871;28;20123;-81
2023/07/30 05:27:31;;;;;;;10.70;5.93;;;;;;;17.36;74.93;100961.91;5037839;28;20033;-81
2023/07/30 05:29:56;;;;;;;15.40;6.07;;;;;;;17.33;75.12;100954.06;5033728;28;20458;-81
2023/07/30 05:32:21;;;;;;;16.20;5.70;;;;;;;17.42;75.04;100958.81;5043085;28;20040;-81
2023/07/30 05:34:47;;;;;;;10.80;5.45;;;;;;;17.48;74.84;100962.88;5043068;28;20492;-81
2023/07/30 05:37:12;;;;;;;16.33;5.40;;;;;;;17.52;74.22;100951.03;5039212;28;20049;-81
2023/07/30 05:39:37;;;;;;;18.02;5.82;;;;;;;17.55;74.23;100959.72;5040869;28;20027;-81
2023/07/30 05:42:03;;;;;;;9.82;5.20;;;;;;;17.58;74.46;100948.81;5039685;28;20077;-81
2023/07/30 05:44:28;;;;;;;15.68;6.53;;;;;;;17.61;74.29;100953.09;5054432;28;20036;-80
2023/07/30 05:46:53;;;;;;;11.10;5.60;;;;;;;17.57;74.48;100957.78;5040679;28;20025;-80
2023/07/30 05:49:19;;;;;;;17.38;5.38;;;;;;;17.60;74.15;100957.56;5054748;28;20492;-81
2023/07/30 05:51:44;;;;;;;18.58;6.10;;;;;;;17.62;74.24;100949.44;5034459;28;20029;-80
2023/07/30 05:54:10;;;;;;;16.95;5.85;;;;;;;17.68;74.09;100951.72;5042024;28;20499;-81
2023/07/30 05:56:35;;;;;;;16.83;5.68;;;;;;;17.70;74.30;100947.09;5045992;28;20063;-81
2023/07/30 05:59:00;;;;;;;23.48;6.32;;;;;;;17.68;73.92;100948.19;5041298;28;20042;-80
2023/07/30 06:01:25;;;;;;;20.52;6.45;;;;;;;17.71;74.38;100955.97;5034606;28;20029;-81
2023/07/30 06:03:51;;;;;;;15.27;6.50;;;;;;;17.73;74.22;100960.31;5040951;28;20029;-81
2023/07/30 06:06:16;;;;;;;21.80;6.82;;;;;;;17.77;74.30;100958.28;5045391;28;20078;-81
2023/07/30 06:08:41;;;;;;;20.15;5.90;;;;;;;17.75;74.32;100957.53;5038599;28;20488;-81
2023/07/30 06:11:07;;;;;;;19.40;6.00;;;;;;;17.76;74.89;100957.41;5046085;28;20031;-81
2023/07/30 06:13:32;;;;;;;19.92;6.15;;;;;;;17.80;74.25;100958.06;5048488;28;20024;-81
2023/07/30 06:15:57;;;;;;;15.93;5.95;;;;;;;17.87;74.53;100961.19;5039403;28;20017;-81
2023/07/30 06:18:23;;;;;;;18.92;6.47;;;;;;;17.97;74.18;100963.13;5048998;28;20073;-81
2023/07/30 06:20:48;;;;;;;18.52;6.55;;;;;;;18.01;73.67;100967.28;5039722;28;20113;-81
2023/07/30 06:23:13;;;;;;;18.25;5.97;;;;;;;18.08;73.68;100971.25;5035670;28;20236;-81
2023/07/30 06:25:38;;;;;;;18.33;5.80;;;;;;;17.97;73.73;100964.94;5038084;28;22233;-81
2023/07/30 06:28:05;;;;;;;18.88;5.80;;;;;;;18.05;73.80;100962.59;5046521;28;20036;-81
2023/07/30 06:30:32;;;;;;;18.30;6.30;;;;;;;18.05;74.05;100971.47;5041943;28;20112;-81
2023/07/30 06:32:57;;;;;;;14.18;5.25;;;;;;;18.01;73.69;100966.44;5051607;28;20124;-81
2023/07/30 06:35:23;;;;;;;14.32;5.15;;;;;;;18.14;73.35;100966.44;5039940;28;20071;-81
2023/07/30 06:37:49;;;;;;;20.15;5.55;;;;;;;18.17;73.25;100966.22;5044271;28;20117;-81
2023/07/30 06:40:14;;;;;;;14.63;4.88;;;;;;;18.16;72.78;100969.88;5047868;28;20427;-80
2023/07/30 06:42:39;;;;;;;17.95;6.55;;;;;;;18.17;73.68;100972.44;5041395;28;20120;-81
2023/07/30 06:45:05;;;;;;;14.15;5.93;;;;;;;18.16;72.95;100967.19;5047160;28;20045;-81
2023/07/30 06:47:30;;;;;;;17.15;5.88;;;;;;;18.24;73.49;100967.53;5040989;28;20105;-81
2023/07/30 06:49:55;;;;;;;22.50;5.93;;;;;;;18.32;73.20;100973.16;5047428;28;20107;-81
2023/07/30 06:52:21;;;;;;;19.25;5.57;;;;;;;18.40;72.56;100959.25;5046926;28;20028;-81
2023/07/30 06:54:46;;;;;;;18.73;5.75;;;;;;;18.43;72.67;100975.09;5048257;28;20021;-81
2023/07/30 06:57:11;;;;;;;15.15;4.97;;;;;;;18.55;71.99;100963.50;5038364;28;20560;-81
2023/07/30 06:59:37;;;;;;;17.02;5.00;;;;;;;18.60;71.43;100966.72;5054715;28;20029;-81
2023/07/30 07:02:02;;;;;;;17.38;5.40;;;;;;;18.67;71.81;100976.03;5039626;28;20303;-81
2023/07/30 07:04:27;;;;;;;12.65;4.88;;;;;;;18.72;70.95;100973.91;5050866;28;20399;-81
2023/07/30 07:06:52;;;;;;;11.00;4.93;;;;;;;18.81;71.54;100977.75;5034943;28;20447;-80
2023/07/30 07:09:18;;;;;;;18.33;4.72;;;;;;;18.88;71.17;100978.13;5041638;28;20021;-81
2023/07/30 07:11:43;;;;;;;18.83;4.72;;;;;;;18.97;70.71;100981.00;5046300;28;20033;-81
2023/07/30 07:14:08;;;;;;;14.38;4.55;;;;;;;19.07;70.65;100983.84;5042478;28;20025;-81
2023/07/30 07:16:34;;;;;;;16.17;4.85;;;;;;;18.91;70.01;100975.25;5041386;28;20074;-81
2023/07/30 07:18:59;;;;;;;15.60;4.90;;;;;;;18.96;70.15;100978.44;5040457;28;20032;-81
2023/07/30 07:21:26;;;;;;;26.90;5.43;;;;;;;19.07;69.93;100983.84;5059515;28;20551;-81
2023/07/30 07:23:51;;;;;;;18.48;4.57;;;;;;;19.22;69.03;100989.94;5041372;28;20022;-81
2023/07/30 07:26:16;;;;;;;16.33;4.10;;;;;;;19.27;68.68;100977.91;5035109;28;20086;-81
2023/07/30 07:28:42;;;;;;;18.48;4.60;;;;;;;19.39;68.54;100981.47;5033028;28;20481;-82
2023/07/30 07:31:07;;;;;;;13.75;4.07;;;;;;;19.46;68.19;100984.56;5034445;28;20035;-81
2023/07/30 07:33:32;;;;;;;16.58;4.18;;;;;;;19.71;67.77;100989.81;5056798;28;20039;-82
2023/07/30 07:36:05;;;;;;;11.88;3.83;;;;;;;19.81;67.08;100988.13;5051495;28;20021;-82
2023/07/30 07:38:31;;;;;;;15.88;3.97;;;;;;;20.27;66.04;100987.25;5059113;28;20071;-82
2023/07/30 07:40:56;;;;;;;10.90;3.53;;;;;;;20.48;64.35;100983.91;5049222;28;20276;-82
2023/07/30 07:43:22;;;;;;;15.07;4.50;;;;;;;20.32;65.24;100977.00;5041961;28;20590;-82
2023/07/30 07:45:47;;;;;;;15.80;3.72;;;;;;;20.46;65.02;100989.34;5037591;28;20029;-82
2023/07/30 07:48:12;;;;;;;13.00;3.15;;;;;;;20.25;65.38;100988.38;5041482;28;20043;-82
2023/07/30 07:50:37;;;;;;;14.38;4.20;;;;;;;20.23;65.00;100991.16;5046164;28;20045;-82
2023/07/30 07:53:03;;;;;;;14.65;3.47;;;;;;;20.15;66.02;100993.59;5043670;28;20398;-82
2023/07/30 07:55:28;;;;;;;12.88;3.65;;;;;;;20.03;65.98;100995.38;5040355;28;20066;-82
2023/07/30 07:57:53;;;;;;;16.42;3.50;;;;;;;20.12;66.05;100997.38;5042622;28;20020;-82
2023/07/30 08:00:19;;;;;;;15.80;3.53;;;;;;;19.93;66.69;100993.53;5049777;28;20066;-82
2023/07/30 08:02:44;;;;;;;9.60;2.78;;;;;;;20.21;65.85;100992.25;5043227;28;20259;-82
2023/07/30 08:05:10;;;;;;;12.85;3.58;;;;;;;20.27;65.10;100997.13;5033163;28;20032;-82
2023/07/30 08:07:35;;;;;;;14.93;3.45;;;;;;;20.25;64.63;100999.09;5047224;28;20052;-83
2023/07/30 08:10:00;;;;;;;17.67;3.80;;;;;;;20.26;65.44;100995.44;5044252;28;20125;-83
2023/07/30 08:12:25;;;;;;;10.80;3.40;;;;;;;20.35;64.00;100998.25;5037415;28;20392;-83
2023/07/30 08:14:51;;;;;;;12.35;3.13;;;;;;;20.45;63.52;101005.59;5029570;28;20028;-83
2023/07/30 08:17:16;;;;;;;19.38;3.67;;;;;;;20.39;64.08;101001.56;5036435;28;20116;-83
2023/07/30 08:19:42;;;;;;;15.13;3.30;;;;;;;20.61;63.73;101006.97;5036754;28;20242;-82
2023/07/30 08:22:07;;;;;;;14.10;3.30;;;;;;;20.69;64.10;101008.19;5032650;28;20060;-82
2023/07/30 08:24:32;;;;;;;16.35;3.20;;;;;;;20.67;61.90;101005.63;5030975;28;20129;-82
2023/07/30 08:26:58;;;;;;;13.25;3.10;;;;;;;20.77;62.67;101009.28;5029096;28;20516;-82
2023/07/30 08:29:23;;;;;;;8.73;3.10;;;;;;;20.62;61.58;101011.38;5038135;28;20029;-84
2023/07/30 08:31:49;;;;;;;15.23;3.40;;;;;;;20.46;62.68;101018.88;5036008;28;20028;-83
2023/07/30 08:34:14;;;;;;;16.15;4.30;;;;;;;20.29;62.91;101009.47;5033165;28;20388;-82
2023/07/30 08:36:39;;;;;;;11.95;3.38;;;;;;;20.35;63.39;101010.81;5033766;28;20025;-83
2023/07/30 08:39:04;;;;;;;15.40;4.07;;;;;;;20.42;61.36;100995.06;5039836;28;20029;-83
2023/07/30 08:41:30;;;;;;;13.27;4.32;;;;;;;20.41;62.26;101007.66;5031481;28;20075;-83
2023/07/30 08:43:55;;;;;;;13.93;3.67;;;;;;;20.29;61.68;100998.75;5036621;28;20053;-83
2023/07/30 08:46:21;;;;;;;12.63;4.07;;;;;;;20.29;62.32;101009.47;5038943;28;20037;-83
2023/07/30 08:48:46;;;;;;;11.48;3.50;;;;;;;20.37;62.42;101006.19;5045260;28;20032;-83
2023/07/30 08:51:12;;;;;;;13.77;3.67;;;;;;;20.44;61.74;101017.31;5032923;28;20025;-83
2023/07/30 08:53:38;;;;;;;14.43;3.47;;;;;;;20.40;61.79;101014.00;5037744;28;20021;-82
2023/07/30 08:56:05;;;;;;;14.80;3.47;;;;;;;20.21;62.30;101017.28;5035826;28;20037;-82
2023/07/30 08:58:32;;;;;;;12.15;3.22;;;;;;;20.08;63.28;101024.56;5031866;28;20395;-83
2023/07/30 09:01:00;;;;;;;12.00;3.33;;;;;;;19.87;64.33;101027.94;5047958;28;20085;-84
2023/07/30 09:03:27;;;;;;;13.15;3.78;;;;;;;19.73;67.05;101020.06;5047775;28;20033;-84
2023/07/30 09:05:53;;;;;;;15.77;4.07;;;;;;;19.54;68.37;101023.25;5050707;28;20506;-84
2023/07/30 09:08:18;;;;;;;9.73;3.90;;;;;;;19.47;69.28;101018.44;5039709;28;20037;-84
2023/07/30 09:10:43;;;;;;;14.85;4.05;;;;;;;19.34;69.55;101022.03;5049652;28;20036;-84
2023/07/30 09:13:09;;;;;;;15.43;3.85;;;;;;;19.41;70.20;101021.59;5049644;28;20103;-84
2023/07/30 09:15:39;;;;;;;12.57;3.90;;;;;;;19.54;70.43;101012.53;5047158;28;20025;-84
2023/07/30 09:18:06;;;;;;;14.60;4.68;;;;;;;20.06;69.48;101013.97;5041769;28;20403;-84
2023/07/30 09:20:41;;;;;;;14.32;4.47;;;;;;;22.06;64.48;101020.16;5043268;28;20048;-84
2023/07/30 09:23:08;;;;;;;15.32;4.10;;;;;;;22.97;62.04;101010.44;5042349;28;20033;-84
2023/07/30 09:25:34;;;;;;;12.02;3.50;;;;;;;23.47;58.09;101019.34;5053162;28;20352;-84
2023/07/30 09:27:59;;;;;;;13.25;3.42;;;;;;;23.31;56.80;101011.78;5038221;28;20025;-84
2023/07/30 09:30:27;;;;;;;10.32;3.30;;;;;;;22.97;58.05;101003.19;5045212;28;20029;-84
2023/07/30 09:32:53;;;;;;;13.52;3.90;;;;;;;23.91;57.83;100998.19;5041157;28;20044;-84
2023/07/30 09:35:19;;;;;;;9.27;3.47;;;;;;;24.72;54.82;101003.13;5049139;28;20555;-83
2023/07/30 09:37:45;;;;;;;9.23;2.97;;;;;;;24.05;52.60;101005.81;5041096;28;20145;-85
2023/07/30 09:40:17;;;;;;;11.90;3.30;;;;;;;23.24;54.48;101007.94;5054451;28;20037;-84
2023/07/30 09:42:45;;;;;;;10.43;3.10;;;;;;;22.71;55.45;101013.59;5050843;28;20028;-84
2023/07/30 09:45:22;;;;;;;11.38;2.67;;;;;;;22.84;54.87;100992.63;5043335;28;20065;-84
2023/07/30 09:47:48;;;;;;;9.00;2.90;;;;;;;23.16;53.07;100997.84;5040918;28;20021;-84
2023/07/30 09:50:14;;;;;;;5.82;1.92;;;;;;;23.17;53.12;101007.66;5053647;28;20115;-85
2023/07/30 09:52:40;;;;;;;7.20;2.03;;;;;;;22.76;52.65;101002.41;5044611;28;20025;-84
2023/07/30 09:55:07;;;;;;;8.52;2.30;;;;;;;22.52;54.14;101008.09;5042731;28;20040;-84
2023/07/30 09:57:32;;;;;;;12.40;2.80;;;;;;;22.36;52.95;101012.13;5050244;28;20024;-83
2023/07/30 09:59:58;;;;;;;9.45;2.47;;;;;;;22.25;54.90;101012.22;5060221;28;20364;-83
2023/07/30 10:02:25;;;;;;;12.23;2.20;;;;;;;22.22;54.42;101017.03;5040712;28;20021;-83
2023/07/30 10:04:52;;;;;;;5.70;2.25;;;;;;;22.22;56.07;101011.63;5056972;28;20924;-83
2023/07/30 10:07:21;;;;;;;9.85;2.30;;;;;;;22.29;54.92;101010.09;5052907;28;20112;-83
2023/07/30 10:09:50;;;;;;;6.32;1.88;;;;;;;22.19;53.96;101011.88;5045450;28;20107;-83
2023/07/30 10:12:19;;;;;;;9.07;2.53;;;;;;;22.03;54.92;101015.88;5047752;28;20120;-83
2023/07/30 10:14:45;;;;;;;10.73;2.65;;;;;;;22.11;55.37;101015.22;5064756;28;20056;-83
2023/07/30 10:17:11;;;;;;;9.38;2.28;;;;;;;22.05;55.11;101027.34;5041272;28;20060;-83
2023/07/30 10:19:37;;;;;;;9.75;1.90;;;;;;;21.95;54.79;101025.59;5060148;28;20067;-83
2023/07/30 10:22:17;;;;;;;11.23;2.38;;;;;;;21.84;55.56;101030.03;5053420;28;20074;-83
2023/07/30 10:24:59;;;;;;;4.95;1.60;;;;;;;21.80;56.48;101025.91;5061078;28;20487;-83
2023/07/30 10:27:26;;;;;;;8.27;2.28;;;;;;;22.17;55.29;101044.34;5056408;28;20020;-83
2023/07/30 10:30:10;;;;;;;6.07;1.95;;;;;;;;;;5058293;28;20032;-83
2023/07/30 10:33:01;;;;;;;8.40;2.10;;;;;;;22.89;54.50;101051.56;5049790;28;20049;-83
2023/07/30 10:35:42;;;;;;;7.43;1.88;;;;;;;23.05;53.03;101053.75;5039405;28;20029;-83
2023/07/30 10:38:24;;;;;;;4.13;1.80;;;;;;;22.65;53.33;101059.94;5043801;28;20421;-83
2023/07/30 10:41:00;;;;;;;;;;;;;;;22.62;54.55;101063.75;5041796;28;20025;-83
2023/07/30 10:43:49;;;;;;;4.57;1.70;;;;;;;22.01;55.00;101071.72;5067257;28;20140;-83
2023/07/30 10:46:17;;;;;;;8.25;2.17;;;;;;;21.56;56.06;101077.25;5050684;28;20139;-84
2023/07/30 10:48:44;;;;;;;5.30;1.83;;;;;;;21.30;57.26;101075.81;5051083;28;20028;-83
2023/07/30 10:51:15;;;;;;;5.25;2.28;;;;;;;21.19;58.16;101070.44;5058404;28;20487;-83
2023/07/30 10:53:44;;;;;;;7.55;2.30;;;;;;;21.28;58.19;101075.94;5055337;28;20470;-83
2023/07/30 10:56:10;;;;;;;7.95;2.78;;;;;;;21.43;58.61;101076.53;5044706;28;20053;-83
2023/07/30 10:58:36;;;;;;;6.13;2.28;;;;;;;21.74;58.55;101069.50;5052142;28;20024;-83
2023/07/30 11:01:06;;;;;;;7.90;2.30;;;;;;;22.36;55.85;101068.72;5056391;28;20447;-84
2023/07/30 11:03:32;;;;;;;6.63;2.25;;;;;;;22.60;54.55;101063.03;5041649;28;20438;-84
2023/07/30 11:05:58;;;;;;;10.93;2.50;;;;;;;22.54;55.49;101060.03;5054072;28;20032;-83
2023/07/30 11:08:38;;;;;;;10.68;2.33;;;;;;;22.36;56.16;101068.72;5038628;28;20036;-85
2023/07/30 11:11:05;;;;;;;7.18;2.35;;;;;;;22.05;55.75;101073.13;5050815;28;20032;-83
2023/07/30 11:13:39;;;;;;;10.23;2.85;;;;;;;21.84;60.00;101066.88;5043597;28;20044;-84
2023/07/30 11:16:06;;;;;;;8.43;2.00;;;;;;;21.58;59.08;101072.59;5058426;28;20040;-84
2023/07/30 11:18:34;;;;;;;5.43;2.03;;;;;;;21.41;60.94;101077.66;5039844;28;20029;-83